createdAt,value
2018-04-05T00:00:18.647Z,0.00
2018-04-05T00:01:18.575Z,0.00
2018-04-05T00:02:18.497Z,0.00
2018-04-05T00:03:18.519Z,0.00
2018-04-05T00:04:18.326Z,0.00
2018-04-05T00:05:18.261Z,0.00
2018-04-05T00:06:18.163Z,0.00
2018-04-05T00:07:18.099Z,0.00
2018-04-05T00:08:18.008Z,0.00
2018-04-05T00:09:17.971Z,0.00
2018-04-05T00:10:17.848Z,0.00
2018-04-05T00:11:17.784Z,0.00
2018-04-05T00:12:17.700Z,0.00
2018-04-05T00:13:17.642Z,0.00
2018-04-05T00:14:17.556Z,0.00
2018-04-05T00:15:17.462Z,0.00
2018-04-05T00:16:17.369Z,0.00
2018-04-05T00:17:17.307Z,0.00
2018-04-05T00:18:17.221Z,0.00
2018-04-05T00:19:17.159Z,0.00
2018-04-05T00:20:17.053Z,0.00
2018-04-05T00:21:17.003Z,0.00
2018-04-05T00:22:16.901Z,0.00
2018-04-05T00:23:16.829Z,0.00
2018-04-05T00:24:16.758Z,0.00
2018-04-05T00:25:16.687Z,0.00
2018-04-05T00:26:16.589Z,0.00
2018-04-05T00:27:16.501Z,0.00
2018-04-05T00:28:16.417Z,0.00
2018-04-05T00:29:16.437Z,0.00
2018-04-05T00:30:16.261Z,0.00
2018-04-05T00:31:16.195Z,0.00
2018-04-05T00:32:16.102Z,0.00
2018-04-05T00:33:16.033Z,0.00
2018-04-05T00:34:15.940Z,0.00
2018-04-05T00:35:15.885Z,0.00
2018-04-05T00:36:15.784Z,0.00
2018-04-05T00:37:15.706Z,0.00
2018-04-05T00:38:15.628Z,0.00
2018-04-05T00:39:15.631Z,0.00
2018-04-05T00:40:15.478Z,0.00
2018-04-05T00:41:15.388Z,0.00
2018-04-05T00:42:15.306Z,0.00
2018-04-05T00:43:15.237Z,0.00
2018-04-05T00:44:15.141Z,0.00
2018-04-05T00:45:15.100Z,0.00
2018-04-05T00:46:14.979Z,0.00
2018-04-05T00:47:14.914Z,0.00
2018-04-05T00:48:14.827Z,0.00
2018-04-05T00:49:14.835Z,0.00
2018-04-05T00:50:14.686Z,0.00
2018-04-05T00:51:14.599Z,0.00
2018-04-05T00:52:14.513Z,0.00
2018-04-05T00:53:14.448Z,0.00
2018-04-05T00:54:14.351Z,0.00
2018-04-05T00:55:14.313Z,0.00
2018-04-05T00:56:14.197Z,0.00
2018-04-05T00:57:14.121Z,0.00
2018-04-05T00:58:14.028Z,0.00
2018-04-05T00:59:13.956Z,0.00
2018-04-05T01:00:13.892Z,0.00
2018-04-05T01:01:13.797Z,0.00
2018-04-05T01:02:14.439Z,0.00
2018-04-05T01:03:13.635Z,0.00
2018-04-05T01:04:13.546Z,0.00
2018-04-05T01:05:13.486Z,0.00
2018-04-05T01:06:13.413Z,0.00
2018-04-05T01:07:13.327Z,0.00
2018-04-05T01:08:13.234Z,0.00
2018-04-05T01:09:13.164Z,0.00
2018-04-05T01:10:13.070Z,0.00
2018-04-05T01:11:13.025Z,0.00
2018-04-05T01:12:12.915Z,0.00
2018-04-05T01:13:12.835Z,0.00
2018-04-05T01:14:12.752Z,0.00
2018-04-05T01:15:12.687Z,0.00
2018-04-05T01:16:12.613Z,0.00
2018-04-05T01:17:12.525Z,0.00
2018-04-05T01:18:12.440Z,0.00
2018-04-05T01:19:12.376Z,0.00
2018-04-05T01:20:12.274Z,0.00
2018-04-05T01:21:12.218Z,0.00
2018-04-05T01:22:12.112Z,0.00
2018-04-05T01:23:12.050Z,0.00
2018-04-05T01:24:11.954Z,0.00
2018-04-05T01:25:11.886Z,0.00
2018-04-05T01:26:11.830Z,0.00
2018-04-05T01:27:11.734Z,0.00
2018-04-05T01:28:11.635Z,0.00
2018-04-05T01:30:53.889Z,0.00
2018-04-05T01:31:53.824Z,0.00
2018-04-05T01:32:53.704Z,0.00
2018-04-05T01:33:53.636Z,0.00
2018-04-05T01:34:53.557Z,0.00
2018-04-05T01:35:53.472Z,0.00
2018-04-05T01:36:53.435Z,0.00
2018-04-05T01:37:53.950Z,0.00
2018-04-05T01:38:53.225Z,0.00
2018-04-05T01:39:53.153Z,0.00
2018-04-05T01:40:53.073Z,0.00
2018-04-05T01:41:53.035Z,0.00
2018-04-05T01:42:52.911Z,0.00
2018-04-05T01:43:52.844Z,0.00
2018-04-05T01:44:52.747Z,0.00
2018-04-05T01:45:52.677Z,0.00
2018-04-05T01:46:52.590Z,0.00
2018-04-05T01:47:52.587Z,0.00
2018-04-05T01:48:52.432Z,0.00
2018-04-05T01:49:52.362Z,0.00
2018-04-05T01:50:52.289Z,0.00
2018-04-05T01:51:52.199Z,0.00
2018-04-05T01:52:52.127Z,0.00
2018-04-05T01:53:52.063Z,0.00
2018-04-05T01:54:52.056Z,0.00
2018-04-05T01:55:51.886Z,0.00
2018-04-05T01:56:51.795Z,0.00
2018-04-05T01:57:51.752Z,0.00
2018-04-05T01:58:51.639Z,0.00
2018-04-05T01:59:51.567Z,0.00
2018-04-05T02:00:51.475Z,0.00
2018-04-05T02:01:51.421Z,0.00
2018-04-05T02:02:51.330Z,0.00
2018-04-05T02:03:51.240Z,0.00
2018-04-05T02:04:51.160Z,0.00
2018-04-05T02:05:51.085Z,0.00
2018-04-05T02:06:51.000Z,0.00
2018-04-05T02:07:50.965Z,0.00
2018-04-05T02:08:50.837Z,0.00
2018-04-05T02:09:50.766Z,0.00
2018-04-05T02:10:50.690Z,0.00
2018-04-05T02:11:50.603Z,0.00
2018-04-05T02:12:50.525Z,0.00
2018-04-05T02:13:50.557Z,0.00
2018-04-05T02:14:50.356Z,0.00
2018-04-05T02:15:50.291Z,0.00
2018-04-05T02:16:50.202Z,0.00
2018-04-05T02:17:50.142Z,0.00
2018-04-05T02:18:50.067Z,0.00
2018-04-05T02:19:49.972Z,0.00
2018-04-05T02:20:49.880Z,0.00
2018-04-05T02:21:49.812Z,0.00
2018-04-05T02:22:49.731Z,0.00
2018-04-05T02:23:49.664Z,0.00
2018-04-05T02:24:49.569Z,0.00
2018-04-05T02:25:49.512Z,0.00
2018-04-05T02:26:49.446Z,0.00
2018-04-05T02:27:49.334Z,0.00
2018-04-05T02:28:49.257Z,0.00
2018-04-05T02:29:49.195Z,0.00
2018-04-05T02:30:49.089Z,0.00
2018-04-05T02:31:49.032Z,0.00
2018-04-05T02:32:48.922Z,0.00
2018-04-05T02:33:48.887Z,0.00
2018-04-05T02:34:48.771Z,0.00
2018-04-05T02:35:48.716Z,0.00
2018-04-05T02:36:48.607Z,0.00
2018-04-05T02:37:48.561Z,0.00
2018-04-05T02:38:48.480Z,0.00
2018-04-05T02:39:48.401Z,0.00
2018-04-05T02:40:48.292Z,0.00
2018-04-05T02:41:48.230Z,0.00
2018-04-05T02:42:48.132Z,0.00
2018-04-05T02:43:48.065Z,0.00
2018-04-05T02:44:47.989Z,0.00
2018-04-05T02:45:47.898Z,0.00
2018-04-05T02:46:47.865Z,0.00
2018-04-05T02:47:47.738Z,0.00
2018-04-05T02:48:47.645Z,0.00
2018-04-05T02:49:47.723Z,0.00
2018-04-05T02:50:47.512Z,0.00
2018-04-05T02:51:47.420Z,0.00
2018-04-05T02:52:47.334Z,0.00
2018-04-05T02:53:47.265Z,0.00
2018-04-05T02:54:47.174Z,0.00
2018-04-05T02:55:47.131Z,0.00
2018-04-05T02:56:47.008Z,0.00
2018-04-05T02:57:46.952Z,0.00
2018-04-05T02:58:46.859Z,0.00
2018-04-05T02:59:46.783Z,0.00
2018-04-05T03:00:46.710Z,0.00
2018-04-05T03:01:46.625Z,0.00
2018-04-05T03:02:46.540Z,0.00
2018-04-05T03:03:46.461Z,0.00
2018-04-05T03:04:46.378Z,0.00
2018-04-05T03:05:46.324Z,0.00
2018-04-05T03:06:46.225Z,0.00
2018-04-05T03:07:46.161Z,0.00
2018-04-05T03:08:46.055Z,0.00
2018-04-05T03:09:45.993Z,0.00
2018-04-05T03:10:45.934Z,0.00
2018-04-05T03:11:45.829Z,0.00
2018-04-05T03:12:45.756Z,0.00
2018-04-05T03:13:45.669Z,0.00
2018-04-05T03:14:45.587Z,0.00
2018-04-05T03:15:45.509Z,0.00
2018-04-05T03:16:45.435Z,0.00
2018-04-05T03:17:45.352Z,0.00
2018-04-05T03:18:45.259Z,0.00
2018-04-05T03:19:45.188Z,0.00
2018-04-05T03:20:45.107Z,0.00
2018-04-05T03:21:45.052Z,0.00
2018-04-05T03:22:44.952Z,0.00
2018-04-05T03:23:44.877Z,0.00
2018-04-05T03:24:44.778Z,0.00
2018-04-05T03:25:44.734Z,0.00
2018-04-05T03:26:44.640Z,0.00
2018-04-05T03:27:44.561Z,0.00
2018-04-05T03:28:44.460Z,0.00
2018-04-05T03:29:44.411Z,0.00
2018-04-05T03:30:44.304Z,0.00
2018-04-05T03:31:44.256Z,0.00
2018-04-05T03:32:44.160Z,0.00
2018-04-05T03:33:44.069Z,0.00
2018-04-05T03:34:43.984Z,0.00
2018-04-05T03:35:43.915Z,0.00
2018-04-05T03:36:43.823Z,0.00
2018-04-05T03:37:43.781Z,0.00
2018-04-05T03:38:43.695Z,0.00
2018-04-05T03:39:43.631Z,0.00
2018-04-05T03:40:43.505Z,0.00
2018-04-05T03:41:43.439Z,0.00
2018-04-05T03:42:43.428Z,0.00
2018-04-05T03:43:43.285Z,0.00
2018-04-05T03:44:43.183Z,0.00
2018-04-05T03:45:43.256Z,0.00
2018-04-05T03:46:43.032Z,0.00
2018-04-05T03:47:42.968Z,0.00
2018-04-05T03:48:42.880Z,0.00
2018-04-05T03:49:42.812Z,0.00
2018-04-05T03:50:42.728Z,0.00
2018-04-05T03:51:42.641Z,0.00
2018-04-05T03:52:42.551Z,0.00
2018-04-05T03:53:42.478Z,0.00
2018-04-05T03:54:42.395Z,0.00
2018-04-05T03:55:42.412Z,0.00
2018-04-05T03:56:42.233Z,0.00
2018-04-05T03:57:42.176Z,0.00
2018-04-05T03:58:42.125Z,0.00
2018-04-05T03:59:42.011Z,0.00
2018-04-05T04:00:41.913Z,0.00
2018-04-05T04:01:41.844Z,0.00
2018-04-05T04:02:41.758Z,0.00
2018-04-05T04:03:41.716Z,0.00
2018-04-05T04:04:41.591Z,0.00
2018-04-05T04:05:41.532Z,0.00
2018-04-05T04:06:41.433Z,0.00
2018-04-05T04:07:41.382Z,0.00
2018-04-05T04:08:41.288Z,0.00
2018-04-05T04:09:41.219Z,0.00
2018-04-05T04:10:41.107Z,0.00
2018-04-05T04:11:41.051Z,0.00
2018-04-05T04:12:40.981Z,0.00
2018-04-05T04:13:40.888Z,0.00
2018-04-05T04:14:40.809Z,0.00
2018-04-05T04:15:40.731Z,0.00
2018-04-05T04:16:40.647Z,0.00
2018-04-05T04:17:40.566Z,0.00
2018-04-05T04:18:40.533Z,0.00
2018-04-05T04:19:40.426Z,0.00
2018-04-05T04:20:40.320Z,0.00
2018-04-05T04:21:40.295Z,0.00
2018-04-05T04:22:40.155Z,0.00
2018-04-05T04:23:40.102Z,0.00
2018-04-05T04:24:40.004Z,0.00
2018-04-05T04:25:39.951Z,0.00
2018-04-05T04:26:39.849Z,0.00
2018-04-05T04:27:39.769Z,0.00
2018-04-05T04:28:39.706Z,0.00
2018-04-05T04:29:39.667Z,0.00
2018-04-05T04:30:39.551Z,0.00
2018-04-05T04:31:39.475Z,0.00
2018-04-05T04:32:39.377Z,0.00
2018-04-05T04:33:39.380Z,4.00
2018-04-05T04:34:39.202Z,0.00
2018-04-05T04:35:39.222Z,4.00
2018-04-05T04:36:39.066Z,4.00
2018-04-05T04:37:38.998Z,4.00
2018-04-05T04:38:38.886Z,8.00
2018-04-05T04:39:38.912Z,4.00
2018-04-05T04:40:38.727Z,8.00
2018-04-05T04:41:38.758Z,4.00
2018-04-05T04:42:38.582Z,4.00
2018-04-05T04:43:38.525Z,8.00
2018-04-05T04:44:38.403Z,8.00
2018-04-05T04:45:38.453Z,12.00
2018-04-05T04:46:38.268Z,12.00
2018-04-05T04:47:38.275Z,16.00
2018-04-05T04:48:38.126Z,16.00
2018-04-05T04:49:38.050Z,20.00
2018-04-05T04:50:37.937Z,24.00
2018-04-05T04:51:38.002Z,24.00
2018-04-05T04:52:37.800Z,32.00
2018-04-05T04:53:37.718Z,36.00
2018-04-05T04:54:37.614Z,44.00
2018-04-05T04:55:37.549Z,44.00
2018-04-05T04:56:37.462Z,56.00
2018-04-05T04:57:37.402Z,64.00
2018-04-05T04:58:37.301Z,68.00
2018-04-05T04:59:37.229Z,76.00
2018-04-05T05:00:37.139Z,68.00
2018-04-05T05:01:37.058Z,76.00
2018-04-05T05:02:36.981Z,92.00
2018-04-05T05:03:36.930Z,104.00
2018-04-05T05:04:36.809Z,124.00
2018-04-05T05:05:36.744Z,132.00
2018-04-05T05:06:36.660Z,144.00
2018-04-05T05:07:36.581Z,152.00
2018-04-05T05:08:36.550Z,156.00
2018-04-05T05:09:36.424Z,156.00
2018-04-05T05:10:36.339Z,156.00
2018-04-05T05:11:36.279Z,152.00
2018-04-05T05:12:36.176Z,152.00
2018-04-05T05:13:36.124Z,160.00
2018-04-05T05:14:36.017Z,192.00
2018-04-05T05:15:36.019Z,212.00
2018-04-05T05:16:35.864Z,236.00
2018-04-05T05:17:35.788Z,192.00
2018-04-05T05:18:35.714Z,176.00
2018-04-05T05:19:35.632Z,124.00
2018-04-05T05:20:35.563Z,116.00
2018-04-05T05:21:35.486Z,100.00
2018-04-05T05:22:35.379Z,108.00
2018-04-05T05:23:35.331Z,124.00
2018-04-05T05:24:35.225Z,112.00
2018-04-05T05:25:35.144Z,112.00
2018-04-05T05:26:35.063Z,128.00
2018-04-05T05:27:34.988Z,172.00
2018-04-05T05:28:34.923Z,200.00
2018-04-05T05:29:34.839Z,212.00
2018-04-05T05:30:34.750Z,280.00
2018-04-05T05:31:34.673Z,304.00
2018-04-05T05:32:34.600Z,320.00
2018-04-05T05:33:34.521Z,328.00
2018-04-05T05:34:34.428Z,352.00
2018-04-05T05:35:34.401Z,372.00
2018-04-05T05:36:34.262Z,376.00
2018-04-05T05:37:34.194Z,396.00
2018-04-05T05:38:34.128Z,400.00
2018-04-05T05:39:34.033Z,428.00
2018-04-05T05:40:33.936Z,384.00
2018-04-05T05:41:33.870Z,388.00
2018-04-05T05:42:33.776Z,320.00
2018-04-05T05:43:33.733Z,308.00
2018-04-05T05:44:33.644Z,352.00
2018-04-05T05:45:33.572Z,424.00
2018-04-05T05:46:33.467Z,572.00
2018-04-05T05:47:33.421Z,716.00
2018-04-05T05:48:33.304Z,844.00
2018-04-05T05:49:33.233Z,968.00
2018-04-05T05:50:33.161Z,1064.00
2018-04-05T05:51:33.094Z,1112.00
2018-04-05T05:52:32.985Z,1140.00
2018-04-05T05:53:32.919Z,1172.00
2018-04-05T05:54:32.920Z,1200.00
2018-04-05T05:55:32.819Z,1284.00
2018-04-05T05:56:32.666Z,1388.00
2018-04-05T05:57:32.684Z,1484.00
2018-04-05T05:58:32.525Z,1588.00
2018-04-05T05:59:32.510Z,1704.00
2018-04-05T06:00:32.362Z,1912.00
2018-04-05T06:01:32.398Z,2248.00
2018-04-05T06:02:32.187Z,2524.00
2018-04-05T06:03:32.300Z,2504.00
2018-04-05T06:04:32.047Z,2568.00
2018-04-05T06:05:32.046Z,2192.00
2018-04-05T06:06:31.905Z,1808.00
2018-04-05T06:07:31.932Z,1684.00
2018-04-05T06:08:31.790Z,1548.00
2018-04-05T06:09:31.765Z,1432.00
2018-04-05T06:10:31.595Z,1576.00
2018-04-05T06:11:31.602Z,1636.00
2018-04-05T06:12:31.448Z,1596.00
2018-04-05T06:13:31.473Z,1556.00
2018-04-05T06:14:31.294Z,1512.00
2018-04-05T06:15:31.295Z,1384.00
2018-04-05T06:16:31.953Z,1260.00
2018-04-05T06:17:31.101Z,976.00
2018-04-05T06:18:30.913Z,732.00
2018-04-05T06:19:30.882Z,552.00
2018-04-05T06:20:30.758Z,536.00
2018-04-05T06:21:30.808Z,544.00
2018-04-05T06:22:30.598Z,632.00
2018-04-05T06:23:30.666Z,680.00
2018-04-05T06:24:30.440Z,1096.00
2018-04-05T06:25:30.404Z,1576.00
2018-04-05T06:26:30.370Z,1708.00
2018-04-05T06:27:30.310Z,1264.00
2018-04-05T06:28:30.120Z,1052.00
2018-04-05T06:29:30.117Z,1004.00
2018-04-05T06:30:29.947Z,796.00
2018-04-05T06:31:29.922Z,716.00
2018-04-05T06:32:29.820Z,640.00
2018-04-05T06:33:29.846Z,616.00
2018-04-05T06:34:29.641Z,636.00
2018-04-05T06:35:29.644Z,552.00
2018-04-05T06:36:29.476Z,528.00
2018-04-05T06:37:29.480Z,604.00
2018-04-05T06:38:29.321Z,604.00
2018-04-05T06:39:29.249Z,828.00
2018-04-05T06:40:29.148Z,1124.00
2018-04-05T06:41:29.156Z,1120.00
2018-04-05T06:42:29.008Z,1192.00
2018-04-05T06:43:29.016Z,1088.00
2018-04-05T06:44:28.825Z,1144.00
2018-04-05T06:45:28.799Z,948.00
2018-04-05T06:46:28.679Z,924.00
2018-04-05T06:47:28.703Z,1004.00
2018-04-05T06:48:28.542Z,908.00
2018-04-05T06:49:28.514Z,760.00
2018-04-05T06:50:28.347Z,748.00
2018-04-05T06:51:28.324Z,752.00
2018-04-05T06:52:28.187Z,768.00
2018-04-05T06:53:28.373Z,760.00
2018-04-05T06:54:28.040Z,788.00
2018-04-05T06:55:28.037Z,876.00
2018-04-05T06:56:27.881Z,900.00
2018-04-05T06:57:27.852Z,1288.00
2018-04-05T06:58:27.833Z,1376.00
2018-04-05T06:59:27.760Z,1788.00
2018-04-05T07:00:27.560Z,2256.00
2018-04-05T07:01:27.562Z,2400.00
2018-04-05T07:02:27.400Z,3024.00
2018-04-05T07:03:27.418Z,2824.00
2018-04-05T07:04:27.238Z,2916.00
2018-04-05T07:05:27.357Z,2884.00
2018-04-05T07:06:27.066Z,2980.00
2018-04-05T07:07:27.095Z,3720.00
2018-04-05T07:08:26.924Z,3872.00
2018-04-05T07:09:26.936Z,3720.00
2018-04-05T07:10:26.753Z,3136.00
2018-04-05T07:11:27.019Z,3376.00
2018-04-05T07:12:26.596Z,3664.00
2018-04-05T07:15:08.471Z,4760.00
2018-04-05T07:16:08.413Z,5340.00
2018-04-05T07:17:08.295Z,4900.00
2018-04-05T07:18:08.345Z,4460.00
2018-04-05T07:19:08.119Z,3632.00
2018-04-05T07:20:08.067Z,3528.00
2018-04-05T07:21:07.973Z,3624.00
2018-04-05T07:22:07.953Z,3940.00
2018-04-05T07:23:07.853Z,3016.00
2018-04-05T07:24:07.789Z,3320.00
2018-04-05T07:25:07.666Z,3528.00
2018-04-05T07:26:07.659Z,3608.00
2018-04-05T07:27:07.482Z,4128.00
2018-04-05T07:28:07.463Z,2756.00
2018-04-05T07:29:07.340Z,1956.00
2018-04-05T07:30:07.312Z,1984.00
2018-04-05T07:31:07.160Z,1980.00
2018-04-05T07:32:07.182Z,2244.00
2018-04-05T07:33:07.008Z,2144.00
2018-04-05T07:34:06.941Z,1900.00
2018-04-05T07:35:06.897Z,2124.00
2018-04-05T07:36:06.784Z,1944.00
2018-04-05T07:39:14.963Z,1564.00
2018-04-05T07:40:35.961Z,1452.00
2018-04-05T07:41:14.789Z,1388.00
2018-04-05T07:42:14.828Z,1392.00
2018-04-05T07:43:14.631Z,1328.00
2018-04-05T07:44:14.636Z,1472.00
2018-04-05T07:45:14.500Z,1476.00
2018-04-05T07:46:14.453Z,1416.00
2018-04-05T07:47:14.310Z,1644.00
2018-04-05T07:48:14.358Z,1848.00
2018-04-05T07:49:14.164Z,1992.00
2018-04-05T07:50:14.213Z,1672.00
2018-04-05T07:51:13.998Z,1580.00
2018-04-05T07:52:13.980Z,1796.00
2018-04-05T07:53:13.837Z,1884.00
2018-04-05T07:54:13.789Z,2236.00
2018-04-05T07:55:13.721Z,2060.00
2018-04-05T07:56:13.706Z,2168.00
2018-04-05T07:57:13.513Z,2788.00
2018-04-05T07:58:13.512Z,3896.00
2018-04-05T07:59:13.402Z,5944.00
2018-04-05T08:00:13.345Z,4840.00
2018-04-05T08:01:13.216Z,4128.00
2018-04-05T08:02:13.119Z,3952.00
2018-04-05T08:03:13.028Z,2856.00
2018-04-05T08:04:13.031Z,2160.00
2018-04-05T08:05:12.895Z,2088.00
2018-04-05T08:06:12.865Z,2392.00
2018-04-05T08:07:12.728Z,3236.00
2018-04-05T08:08:12.775Z,3380.00
2018-04-05T08:09:12.551Z,3060.00
2018-04-05T08:10:12.555Z,2936.00
2018-04-05T08:11:12.411Z,3252.00
2018-04-05T08:12:12.320Z,2824.00
2018-04-05T08:13:12.240Z,2688.00
2018-04-05T08:14:12.154Z,3412.00
2018-04-05T08:15:12.066Z,3004.00
2018-04-05T08:16:12.027Z,3188.00
2018-04-05T08:17:11.904Z,3072.00
2018-04-05T08:18:11.902Z,3628.00
2018-04-05T08:19:11.739Z,3536.00
2018-04-05T08:20:11.696Z,3276.00
2018-04-05T08:21:11.590Z,3368.00
2018-04-05T08:22:11.642Z,3360.00
2018-04-05T08:23:11.529Z,3148.00
2018-04-05T08:24:11.416Z,3508.00
2018-04-05T08:25:11.268Z,3052.00
2018-04-05T08:26:11.280Z,3588.00
2018-04-05T08:27:11.124Z,2888.00
2018-04-05T08:28:11.134Z,2300.00
2018-04-05T08:29:10.958Z,2296.00
2018-04-05T08:30:10.884Z,2300.00
2018-04-05T08:31:10.819Z,2064.00
2018-04-05T08:32:10.789Z,2276.00
2018-04-05T08:33:10.622Z,2464.00
2018-04-05T08:34:10.558Z,2696.00
2018-04-05T08:35:10.514Z,2724.00
2018-04-05T08:36:10.484Z,2328.00
2018-04-05T08:37:10.347Z,2060.00
2018-04-05T08:38:10.289Z,1776.00
2018-04-05T08:39:10.144Z,1968.00
2018-04-05T08:40:10.207Z,1988.00
2018-04-05T08:41:09.983Z,1772.00
2018-04-05T08:42:10.029Z,1656.00
2018-04-05T08:43:09.823Z,1592.00
2018-04-05T08:44:09.811Z,1448.00
2018-04-05T08:45:09.674Z,1400.00
2018-04-05T08:46:09.724Z,1324.00
2018-04-05T08:47:09.544Z,1396.00
2018-04-05T08:48:09.527Z,1392.00
2018-04-05T08:49:09.385Z,1512.00
2018-04-05T08:50:09.301Z,1520.00
2018-04-05T08:51:09.243Z,1396.00
2018-04-05T08:52:09.180Z,1552.00
2018-04-05T08:53:09.060Z,1636.00
2018-04-05T08:54:09.066Z,1440.00
2018-04-05T08:55:08.904Z,1356.00
2018-04-05T08:56:08.870Z,1196.00
2018-04-05T08:57:08.712Z,1212.00
2018-04-05T08:58:08.731Z,1092.00
2018-04-05T08:59:08.544Z,1124.00
2018-04-05T09:00:08.585Z,1296.00
2018-04-05T09:01:08.383Z,1568.00
2018-04-05T09:02:08.389Z,1924.00
2018-04-05T09:03:08.249Z,1636.00
2018-04-05T09:04:08.200Z,1172.00
2018-04-05T09:05:08.065Z,1044.00
2018-04-05T09:06:08.119Z,1256.00
2018-04-05T09:07:08.028Z,1336.00
2018-04-05T09:08:07.931Z,1104.00
2018-04-05T09:09:08.154Z,1000.00
2018-04-05T09:10:07.756Z,836.00
2018-04-05T09:11:07.574Z,856.00
2018-04-05T09:12:07.528Z,1024.00
2018-04-05T09:13:07.489Z,1088.00
2018-04-05T09:14:07.597Z,1356.00
2018-04-05T09:15:07.277Z,1380.00
2018-04-05T09:16:07.259Z,1792.00
2018-04-05T09:17:07.103Z,1976.00
2018-04-05T09:18:07.076Z,2356.00
2018-04-05T09:19:06.971Z,3116.00
2018-04-05T09:20:06.975Z,4264.00
2018-04-05T09:21:06.779Z,4208.00
2018-04-05T09:22:06.808Z,4420.00
2018-04-05T09:23:06.637Z,4344.00
2018-04-05T09:24:06.632Z,3580.00
2018-04-05T09:25:06.469Z,2728.00
2018-04-05T09:26:06.481Z,2384.00
2018-04-05T09:27:06.308Z,2720.00
2018-04-05T09:28:06.311Z,4068.00
2018-04-05T09:29:06.136Z,4376.00
2018-04-05T09:30:06.162Z,3384.00
2018-04-05T09:31:06.004Z,4860.00
2018-04-05T09:32:05.948Z,6640.00
2018-04-05T09:33:05.821Z,5632.00
2018-04-05T09:34:05.851Z,4772.00
2018-04-05T09:35:05.657Z,4396.00
2018-04-05T09:36:05.694Z,3348.00
2018-04-05T09:37:05.490Z,3440.00
2018-04-05T09:38:05.458Z,3588.00
2018-04-05T09:39:05.326Z,3324.00
2018-04-05T09:40:05.409Z,4180.00
2018-04-05T09:41:05.169Z,5316.00
2018-04-05T09:43:47.472Z,4840.00
2018-04-05T09:44:47.512Z,4652.00
2018-04-05T09:45:47.343Z,5168.00
2018-04-05T09:46:47.356Z,4356.00
2018-04-05T09:47:47.150Z,4376.00
2018-04-05T09:48:47.254Z,5108.00
2018-04-05T09:49:47.000Z,4464.00
2018-04-05T09:50:47.036Z,3640.00
2018-04-05T09:51:46.864Z,2892.00
2018-04-05T09:52:46.838Z,3224.00
2018-04-05T09:53:46.689Z,3124.00
2018-04-05T09:54:46.632Z,2372.00
2018-04-05T09:55:46.536Z,2416.00
2018-04-05T09:56:46.537Z,2816.00
2018-04-05T09:57:46.359Z,2864.00
2018-04-05T09:58:46.344Z,2380.00
2018-04-05T09:59:46.218Z,2116.00
2018-04-05T10:00:46.781Z,2176.00
2018-04-05T10:01:46.025Z,4284.00
2018-04-05T10:02:46.059Z,8052.00
2018-04-05T10:03:45.869Z,9336.00
2018-04-05T10:04:45.793Z,9180.00
2018-04-05T10:05:45.741Z,8756.00
2018-04-05T10:06:45.682Z,7148.00
2018-04-05T10:07:45.670Z,7788.00
2018-04-05T10:08:45.899Z,8172.00
2018-04-05T10:09:45.413Z,9388.00
2018-04-05T10:10:46.056Z,9628.00
2018-04-05T10:11:45.246Z,10132.00
2018-04-05T10:12:45.202Z,9248.00
2018-04-05T10:13:45.081Z,6796.00
2018-04-05T10:14:44.994Z,5704.00
2018-04-05T10:15:44.909Z,5732.00
2018-04-05T10:16:44.967Z,5260.00
2018-04-05T10:17:44.758Z,5512.00
2018-04-05T10:18:44.680Z,5688.00
2018-04-05T10:19:44.606Z,4076.00
2018-04-05T10:20:44.547Z,4072.00
2018-04-05T10:21:44.459Z,4696.00
2018-04-05T10:22:44.452Z,6548.00
2018-04-05T10:23:44.283Z,5996.00
2018-04-05T10:24:45.060Z,7380.00
2018-04-05T10:25:44.733Z,7420.00
2018-04-05T10:26:44.082Z,7552.00
2018-04-05T10:27:43.964Z,6408.00
2018-04-05T10:28:44.119Z,6836.00
2018-04-05T10:29:43.784Z,7172.00
2018-04-05T10:30:43.786Z,11732.00
2018-04-05T10:31:43.661Z,21632.00
2018-04-05T10:32:43.600Z,8196.00
2018-04-05T10:33:43.464Z,10212.00
2018-04-05T10:34:43.508Z,9648.00
2018-04-05T10:35:43.318Z,8284.00
2018-04-05T10:36:43.275Z,10144.00
2018-04-05T10:37:43.178Z,8144.00
2018-04-05T10:38:43.133Z,7736.00
2018-04-05T10:39:43.017Z,6504.00
2018-04-05T10:40:43.046Z,10392.00
2018-04-05T10:41:42.848Z,7568.00
2018-04-05T10:42:42.872Z,8068.00
2018-04-05T10:43:42.707Z,5572.00
2018-04-05T10:44:42.655Z,5512.00
2018-04-05T10:45:42.525Z,5056.00
2018-04-05T10:46:42.577Z,7532.00
2018-04-05T10:47:42.390Z,8448.00
2018-04-05T10:48:42.368Z,9580.00
2018-04-05T10:49:42.206Z,8860.00
2018-04-05T10:50:42.187Z,35968.00
2018-04-05T10:51:42.126Z,39264.00
2018-04-05T10:52:41.997Z,18784.00
2018-04-05T10:53:41.890Z,36576.00
2018-04-05T10:54:41.816Z,14660.00
2018-04-05T10:55:41.711Z,15152.00
2018-04-05T10:56:41.647Z,15260.00
2018-04-05T10:57:41.564Z,50112.00
2018-04-05T10:58:41.553Z,22240.00
2018-04-05T10:59:41.398Z,97120.00
2018-04-05T11:00:41.436Z,18592.00
2018-04-05T11:01:41.254Z,30656.00
2018-04-05T11:02:41.232Z,34496.00
2018-04-05T11:03:41.109Z,32864.00
2018-04-05T11:04:41.080Z,101120.00
2018-04-05T11:05:40.937Z,57728.00
2018-04-05T11:06:40.958Z,33760.00
2018-04-05T11:07:40.770Z,63904.00
2018-04-05T11:08:40.765Z,13528.00
2018-04-05T11:09:40.645Z,12860.00
2018-04-05T11:10:40.589Z,8796.00
2018-04-05T11:11:40.457Z,7228.00
2018-04-05T11:12:40.487Z,3620.00
2018-04-05T11:13:40.325Z,2804.00
2018-04-05T11:14:40.332Z,2412.00
2018-04-05T11:15:40.149Z,2696.00
2018-04-05T11:16:40.205Z,3540.00
2018-04-05T11:17:39.994Z,3048.00
2018-04-05T11:18:40.008Z,2828.00
2018-04-05T11:19:39.949Z,4788.00
2018-04-05T11:20:39.852Z,5940.00
2018-04-05T11:21:39.921Z,4904.00
2018-04-05T11:22:39.725Z,5404.00
2018-04-05T11:23:39.522Z,5104.00
2018-04-05T11:24:39.536Z,4552.00
2018-04-05T11:25:39.383Z,5420.00
2018-04-05T11:26:39.340Z,6252.00
2018-04-05T11:27:39.223Z,5020.00
2018-04-05T11:28:39.255Z,5380.00
2018-04-05T11:29:39.071Z,7412.00
2018-04-05T11:30:39.118Z,6952.00
2018-04-05T11:31:38.892Z,5320.00
2018-04-05T11:32:38.867Z,7468.00
2018-04-05T11:33:38.732Z,7984.00
2018-04-05T11:34:38.805Z,6648.00
2018-04-05T11:35:38.595Z,7348.00
2018-04-05T11:36:38.503Z,6868.00
2018-04-05T11:37:38.421Z,6872.00
2018-04-05T11:38:38.412Z,6916.00
2018-04-05T11:39:38.250Z,7176.00
2018-04-05T11:40:38.244Z,5588.00
2018-04-05T11:41:38.107Z,4936.00
2018-04-05T11:42:38.137Z,3072.00
2018-04-05T11:43:37.944Z,4880.00
2018-04-05T11:44:37.866Z,5840.00
2018-04-05T11:45:37.778Z,4424.00
2018-04-05T11:46:37.743Z,5588.00
2018-04-05T11:47:37.638Z,5376.00
2018-04-05T11:48:37.543Z,4544.00
2018-04-05T11:49:37.455Z,5160.00
2018-04-05T11:50:37.450Z,5468.00
2018-04-05T11:51:37.316Z,6032.00
2018-04-05T11:52:37.255Z,6500.00
2018-04-05T11:53:37.143Z,6608.00
2018-04-05T11:54:37.105Z,6600.00
2018-04-05T11:55:36.977Z,5508.00
2018-04-05T11:56:37.014Z,5204.00
2018-04-05T11:57:36.828Z,4740.00
2018-04-05T11:58:36.805Z,6004.00
2018-04-05T11:59:36.652Z,6288.00
2018-04-05T12:00:36.716Z,7884.00
2018-04-05T12:01:36.524Z,9080.00
2018-04-05T12:02:36.476Z,9356.00
2018-04-05T12:03:36.341Z,8344.00
2018-04-05T12:04:36.314Z,7584.00
2018-04-05T12:05:36.186Z,7920.00
2018-04-05T12:06:36.159Z,7676.00
2018-04-05T12:07:36.074Z,6524.00
2018-04-05T12:08:36.044Z,7016.00
2018-04-05T12:09:35.854Z,6916.00
2018-04-05T12:10:35.848Z,6520.00
2018-04-05T12:11:35.719Z,7208.00
2018-04-05T12:12:35.642Z,6900.00
2018-04-05T12:13:35.560Z,5956.00
2018-04-05T12:14:35.666Z,6884.00
2018-04-05T12:15:35.384Z,5652.00
2018-04-05T12:16:35.310Z,7388.00
2018-04-05T12:17:35.263Z,7584.00
2018-04-05T12:18:35.177Z,7184.00
2018-04-05T12:19:35.066Z,5924.00
2018-04-05T12:20:34.993Z,7996.00
2018-04-05T12:21:34.907Z,5244.00
2018-04-05T12:22:34.927Z,6908.00
2018-04-05T12:23:34.749Z,7052.00
2018-04-05T12:24:34.726Z,6400.00
2018-04-05T12:25:34.601Z,7084.00
2018-04-05T12:26:35.589Z,5880.00
2018-04-05T12:27:34.544Z,5856.00
2018-04-05T12:28:34.476Z,3548.00
2018-04-05T12:29:34.274Z,5084.00
2018-04-05T12:30:34.238Z,4348.00
2018-04-05T12:31:34.109Z,3988.00
2018-04-05T12:32:34.041Z,4004.00
2018-04-05T12:33:33.965Z,2380.00
2018-04-05T12:36:16.018Z,2360.00
2018-04-05T12:37:15.945Z,2464.00
2018-04-05T12:38:15.896Z,2612.00
2018-04-05T12:39:15.967Z,2012.00
2018-04-05T12:40:15.689Z,2056.00
2018-04-05T12:41:15.669Z,2500.00
2018-04-05T12:42:15.562Z,2236.00